sensor_id;sensor_type;location;lat;lon;timestamp;pressure;altitude;pressure_sealevel;temperature;humidity
75039;BME280;63609;49.992;14.512;2023-07-30T00:03:43;97596.19;;;15.63;71.07
75039;BME280;63609;49.992;14.512;2023-07-30T00:06:10;97588.97;;;15.91;69.52
75039;BME280;63609;49.992;14.512;2023-07-30T00:08:37;97597.38;;;15.82;69.61
75039;BME280;63609;49.992;14.512;2023-07-30T00:11:09;97598.13;;;15.69;70.24
75039;BME280;63609;49.992;14.512;2023-07-30T00:13:36;97593.66;;;15.83;69.65
75039;BME280;63609;49.992;14.512;2023-07-30T00:16:03;97581.50;;;15.65;70.32
75039;BME280;63609;49.992;14.512;2023-07-30T00:18:31;97591.94;;;15.75;69.93
75039;BME280;63609;49.992;14.512;2023-07-30T00:21:06;97590.78;;;15.63;70.26
75039;BME280;63609;49.992;14.512;2023-07-30T00:23:34;97590.66;;;15.43;70.61
75039;BME280;63609;49.992;14.512;2023-07-30T00:26:01;97589.09;;;15.55;70.20
75039;BME280;63609;49.992;14.512;2023-07-30T00:28:28;97587.06;;;15.64;69.82
75039;BME280;63609;49.992;14.512;2023-07-30T00:30:55;97579.34;;;15.54;70.15
75039;BME280;63609;49.992;14.512;2023-07-30T00:33:22;97581.38;;;15.74;69.17
75039;BME280;63609;49.992;14.512;2023-07-30T00:35:52;97572.31;;;15.53;70.16
75039;BME280;63609;49.992;14.512;2023-07-30T00:38:19;97579.94;;;15.50;70.75
75039;BME280;63609;49.992;14.512;2023-07-30T00:40:47;97578.28;;;15.49;70.62
75039;BME280;63609;49.992;14.512;2023-07-30T00:43:14;97575.50;;;15.35;71.18
75039;BME280;63609;49.992;14.512;2023-07-30T00:45:43;97574.97;;;15.25;71.57
75039;BME280;63609;49.992;14.512;2023-07-30T00:48:12;97565.50;;;15.57;70.53
75039;BME280;63609;49.992;14.512;2023-07-30T00:50:41;97572.91;;;15.27;71.16
75039;BME280;63609;49.992;14.512;2023-07-30T00:53:09;97566.84;;;15.40;70.62
75039;BME280;63609;49.992;14.512;2023-07-30T00:55:37;97565.50;;;15.57;69.97
75039;BME280;63609;49.992;14.512;2023-07-30T00:58:04;97563.97;;;15.69;69.36
75039;BME280;63609;49.992;14.512;2023-07-30T01:00:31;97560.31;;;15.56;70.06
75039;BME280;63609;49.992;14.512;2023-07-30T01:03:00;97563.50;;;15.66;69.46
75039;BME280;63609;49.992;14.512;2023-07-30T01:05:27;97561.69;;;15.45;70.12
75039;BME280;63609;49.992;14.512;2023-07-30T01:07:54;97561.75;;;15.80;68.59
75039;BME280;63609;49.992;14.512;2023-07-30T01:10:22;97565.44;;;15.72;69.27
75039;BME280;63609;49.992;14.512;2023-07-30T01:12:50;97562.22;;;15.62;69.30
75039;BME280;63609;49.992;14.512;2023-07-30T01:15:18;97564.44;;;15.30;70.52
75039;BME280;63609;49.992;14.512;2023-07-30T01:17:46;97567.13;;;15.52;70.15
75039;BME280;63609;49.992;14.512;2023-07-30T01:20:13;97565.06;;;15.54;70.49
75039;BME280;63609;49.992;14.512;2023-07-30T01:22:41;97571.22;;;15.48;70.74
75039;BME280;63609;49.992;14.512;2023-07-30T01:25:08;97568.63;;;15.61;70.21
75039;BME280;63609;49.992;14.512;2023-07-30T01:27:40;97574.59;;;15.84;69.28
75039;BME280;63609;49.992;14.512;2023-07-30T01:30:18;97576.47;;;16.12;68.47
75039;BME280;63609;49.992;14.512;2023-07-30T01:32:50;97580.41;;;16.09;68.10
75039;BME280;63609;49.992;14.512;2023-07-30T01:35:26;97575.16;;;16.36;67.26
75039;BME280;63609;49.992;14.512;2023-07-30T01:37:55;97583.31;;;16.55;65.85
75039;BME280;63609;49.992;14.512;2023-07-30T01:40:22;97582.97;;;16.65;65.92
75039;BME280;63609;49.992;14.512;2023-07-30T01:42:50;97586.03;;;16.62;66.22
75039;BME280;63609;49.992;14.512;2023-07-30T01:45:18;97580.69;;;16.69;65.45
75039;BME280;63609;49.992;14.512;2023-07-30T01:47:45;97591.94;;;16.85;65.00
75039;BME280;63609;49.992;14.512;2023-07-30T01:50:12;97598.59;;;16.83;65.45
75039;BME280;63609;49.992;14.512;2023-07-30T01:52:40;97589.19;;;16.66;65.96
75039;BME280;63609;49.992;14.512;2023-07-30T01:55:07;97589.09;;;16.46;66.61
75039;BME280;63609;49.992;14.512;2023-07-30T01:57:34;97596.50;;;16.37;67.11
75039;BME280;63609;49.992;14.512;2023-07-30T02:00:02;97589.94;;;16.12;68.15
75039;BME280;63609;49.992;14.512;2023-07-30T02:02:29;97588.72;;;16.14;67.99
75039;BME280;63609;49.992;14.512;2023-07-30T02:04:57;97592.94;;;16.30;67.45
75039;BME280;63609;49.992;14.512;2023-07-30T02:07:24;97591.34;;;16.01;69.14
75039;BME280;63609;49.992;14.512;2023-07-30T02:09:51;97584.19;;;15.65;70.78
75039;BME280;63609;49.992;14.512;2023-07-30T02:12:18;97592.00;;;15.82;69.96
75039;BME280;63609;49.992;14.512;2023-07-30T02:14:45;97588.31;;;15.89;69.23
75039;BME280;63609;49.992;14.512;2023-07-30T02:17:12;97586.66;;;15.88;69.71
75039;BME280;63609;49.992;14.512;2023-07-30T02:19:41;97588.19;;;15.69;70.33
75039;BME280;63609;49.992;14.512;2023-07-30T02:22:09;97588.94;;;15.63;70.45
75039;BME280;63609;49.992;14.512;2023-07-30T02:24:35;97591.16;;;16.09;68.45
75039;BME280;63609;49.992;14.512;2023-07-30T02:27:03;97588.50;;;16.16;68.19
75039;BME280;63609;49.992;14.512;2023-07-30T02:29:30;97584.91;;;16.02;68.12
75039;BME280;63609;49.992;14.512;2023-07-30T02:31:58;97578.91;;;16.00;68.09
75039;BME280;63609;49.992;14.512;2023-07-30T02:34:26;97577.72;;;16.09;68.14
75039;BME280;63609;49.992;14.512;2023-07-30T02:36:53;97574.19;;;16.09;67.57
75039;BME280;63609;49.992;14.512;2023-07-30T02:39:20;97582.81;;;16.32;66.73
75039;BME280;63609;49.992;14.512;2023-07-30T02:41:48;97582.00;;;16.38;66.26
75039;BME280;63609;49.992;14.512;2023-07-30T02:44:15;97584.22;;;16.28;66.42
75039;BME280;63609;49.992;14.512;2023-07-30T02:46:46;97581.63;;;16.07;66.73
75039;BME280;63609;49.992;14.512;2023-07-30T02:49:13;97585.19;;;16.14;66.94
75039;BME280;63609;49.992;14.512;2023-07-30T02:51:40;97584.97;;;15.87;68.25
75039;BME280;63609;49.992;14.512;2023-07-30T02:54:19;97590.41;;;15.66;69.34
75039;BME280;63609;49.992;14.512;2023-07-30T02:56:48;97586.81;;;15.31;71.08
75039;BME280;63609;49.992;14.512;2023-07-30T02:59:16;97571.63;;;15.45;70.16
75039;BME280;63609;49.992;14.512;2023-07-30T03:01:43;97588.00;;;15.71;69.46
75039;BME280;63609;49.992;14.512;2023-07-30T03:04:11;97584.97;;;15.59;69.71
75039;BME280;63609;49.992;14.512;2023-07-30T03:06:38;97581.91;;;15.62;69.53
75039;BME280;63609;49.992;14.512;2023-07-30T03:09:05;97582.19;;;15.46;70.40
75039;BME280;63609;49.992;14.512;2023-07-30T03:11:33;97577.84;;;15.24;71.09
75039;BME280;63609;49.992;14.512;2023-07-30T03:14:00;97578.44;;;15.19;72.10
75039;BME280;63609;49.992;14.512;2023-07-30T03:16:27;97587.56;;;15.46;70.52
75039;BME280;63609;49.992;14.512;2023-07-30T03:18:55;97581.47;;;15.59;70.13
75039;BME280;63609;49.992;14.512;2023-07-30T03:21:24;97584.50;;;15.77;69.09
75039;BME280;63609;49.992;14.512;2023-07-30T03:23:51;97578.31;;;15.55;69.90
75039;BME280;63609;49.992;14.512;2023-07-30T03:26:18;97576.91;;;15.59;69.68
75039;BME280;63609;49.992;14.512;2023-07-30T03:28:46;97577.72;;;15.60;69.85
75039;BME280;63609;49.992;14.512;2023-07-30T03:31:13;97573.44;;;15.37;71.06
75039;BME280;63609;49.992;14.512;2023-07-30T03:33:41;97571.38;;;15.39;70.75
75039;BME280;63609;49.992;14.512;2023-07-30T03:36:13;97571.22;;;15.48;70.46
75039;BME280;63609;49.992;14.512;2023-07-30T03:38:42;97579.94;;;15.50;70.03
75039;BME280;63609;49.992;14.512;2023-07-30T03:41:12;97563.31;;;15.18;71.66
75039;BME280;63609;49.992;14.512;2023-07-30T03:43:39;97564.44;;;15.30;71.39
75039;BME280;63609;49.992;14.512;2023-07-30T03:46:06;97569.59;;;15.25;72.05
75039;BME280;63609;49.992;14.512;2023-07-30T03:48:33;97558.97;;;15.17;72.08
75039;BME280;63609;49.992;14.512;2023-07-30T03:51:00;97571.22;;;15.48;70.91
75039;BME280;63609;49.992;14.512;2023-07-30T03:53:28;97568.94;;;15.73;69.68
75039;BME280;63609;49.992;14.512;2023-07-30T03:55:55;97568.31;;;15.43;70.83
75039;BME280;63609;49.992;14.512;2023-07-30T03:58:22;97564.16;;;15.40;71.36
75039;BME280;63609;49.992;14.512;2023-07-30T04:00:50;97556.22;;;15.11;72.51
75039;BME280;63609;49.992;14.512;2023-07-30T04:03:17;97555.09;;;15.26;71.89
75039;BME280;63609;49.992;14.512;2023-07-30T04:05:44;97554.63;;;15.16;72.34
75039;BME280;63609;49.992;14.512;2023-07-30T04:08:11;97554.28;;;15.26;72.41
75039;BME280;63609;49.992;14.512;2023-07-30T04:10:40;97550.44;;;15.35;71.94
75039;BME280;63609;49.992;14.512;2023-07-30T04:13:10;97553.53;;;14.96;74.01
75039;BME280;63609;49.992;14.512;2023-07-30T04:15:37;97550.03;;;14.74;74.98
75039;BME280;63609;49.992;14.512;2023-07-30T04:18:03;97554.44;;;14.82;75.06
75039;BME280;63609;49.992;14.512;2023-07-30T04:20:31;97568.28;;;14.78;75.28
75039;BME280;63609;49.992;14.512;2023-07-30T04:22:57;97573.56;;;15.08;74.47
75039;BME280;63609;49.992;14.512;2023-07-30T04:25:25;97574.84;;;15.12;74.24
75039;BME280;63609;49.992;14.512;2023-07-30T04:27:52;97581.94;;;15.20;74.07
75039;BME280;63609;49.992;14.512;2023-07-30T04:30:21;97576.31;;;15.36;73.54
75039;BME280;63609;49.992;14.512;2023-07-30T04:32:48;97567.53;;;15.49;73.02
75039;BME280;63609;49.992;14.512;2023-07-30T04:35:15;97573.06;;;15.68;72.32
75039;BME280;63609;49.992;14.512;2023-07-30T04:37:42;97575.75;;;15.96;70.80
75039;BME280;63609;49.992;14.512;2023-07-30T04:40:11;97581.41;;;16.02;70.48
75039;BME280;63609;49.992;14.512;2023-07-30T04:42:38;97578.50;;;15.75;71.53
75039;BME280;63609;49.992;14.512;2023-07-30T04:45:06;97577.06;;;15.79;71.19
75039;BME280;63609;49.992;14.512;2023-07-30T04:47:35;97590.88;;;15.97;70.28
75039;BME280;63609;49.992;14.512;2023-07-30T04:50:02;97590.00;;;16.25;69.66
75039;BME280;63609;49.992;14.512;2023-07-30T04:52:30;97586.84;;;16.15;70.08
75039;BME280;63609;49.992;14.512;2023-07-30T04:54:57;97589.47;;;16.02;70.75
75039;BME280;63609;49.992;14.512;2023-07-30T04:57:29;97589.97;;;16.18;70.38
75039;BME280;63609;49.992;14.512;2023-07-30T04:59:56;97590.13;;;16.51;69.29
75039;BME280;63609;49.992;14.512;2023-07-30T05:02:23;97593.75;;;16.65;69.44
75039;BME280;63609;49.992;14.512;2023-07-30T05:04:50;97596.22;;;16.67;69.77
75039;BME280;63609;49.992;14.512;2023-07-30T05:07:17;97599.59;;;16.75;70.19
75039;BME280;63609;49.992;14.512;2023-07-30T05:09:44;97605.84;;;16.82;69.87
75039;BME280;63609;49.992;14.512;2023-07-30T05:12:11;97604.06;;;17.16;68.17
75039;BME280;63609;49.992;14.512;2023-07-30T05:14:38;97600.97;;;17.25;67.79
75039;BME280;63609;49.992;14.512;2023-07-30T05:17:05;97618.28;;;16.77;68.97
75039;BME280;63609;49.992;14.512;2023-07-30T05:19:32;97606.75;;;17.03;68.63
75039;BME280;63609;49.992;14.512;2023-07-30T05:21:59;97611.22;;;16.82;69.59
75039;BME280;63609;49.992;14.512;2023-07-30T05:24:28;97616.84;;;16.87;69.36
75039;BME280;63609;49.992;14.512;2023-07-30T05:26:55;97605.56;;;16.71;69.18
75039;BME280;63609;49.992;14.512;2023-07-30T05:29:22;97610.13;;;16.70;69.89
75039;BME280;63609;49.992;14.512;2023-07-30T05:31:49;97606.75;;;17.03;69.19
75039;BME280;63609;49.992;14.512;2023-07-30T05:34:16;97612.09;;;16.48;70.49
75039;BME280;63609;49.992;14.512;2023-07-30T05:36:43;97605.94;;;16.61;70.22
75039;BME280;63609;49.992;14.512;2023-07-30T05:39:10;97605.28;;;17.07;68.51
75039;BME280;63609;49.992;14.512;2023-07-30T05:41:37;97601.38;;;17.22;68.46
75039;BME280;63609;49.992;14.512;2023-07-30T05:44:04;97604.91;;;17.16;68.53
75039;BME280;63609;49.992;14.512;2023-07-30T05:46:31;97610.44;;;16.95;68.87
75039;BME280;63609;49.992;14.512;2023-07-30T05:48:58;97615.38;;;16.85;69.17
75039;BME280;63609;49.992;14.512;2023-07-30T05:51:25;97600.94;;;17.12;67.78
75039;BME280;63609;49.992;14.512;2023-07-30T05:53:56;97613.59;;;17.05;67.95
75039;BME280;63609;49.992;14.512;2023-07-30T05:56:23;97615.25;;;17.13;68.42
75039;BME280;63609;49.992;14.512;2023-07-30T05:58:50;97623.97;;;17.02;67.79
75039;BME280;63609;49.992;14.512;2023-07-30T06:01:17;97616.28;;;17.05;68.15
75039;BME280;63609;49.992;14.512;2023-07-30T06:03:44;97611.78;;;17.52;67.27
75039;BME280;63609;49.992;14.512;2023-07-30T06:06:11;97626.88;;;17.00;67.71
75039;BME280;63609;49.992;14.512;2023-07-30T06:08:38;97623.88;;;17.56;66.61
75039;BME280;63609;49.992;14.512;2023-07-30T06:11:05;97624.88;;;17.42;67.12
75039;BME280;63609;49.992;14.512;2023-07-30T06:13:31;97623.66;;;17.58;66.96
75039;BME280;63609;49.992;14.512;2023-07-30T06:15:58;97632.91;;;17.29;67.03
75039;BME280;63609;49.992;14.512;2023-07-30T06:18:26;97630.69;;;17.52;66.45
75039;BME280;63609;49.992;14.512;2023-07-30T06:20:53;97633.44;;;17.65;65.47
75039;BME280;63609;49.992;14.512;2023-07-30T06:23:21;97633.22;;;17.80;65.51
75039;BME280;63609;49.992;14.512;2023-07-30T06:25:48;97631.78;;;17.77;65.89
75039;BME280;63609;49.992;14.512;2023-07-30T06:28:15;97623.47;;;17.99;65.58
75039;BME280;63609;49.992;14.512;2023-07-30T06:30:43;97635.09;;;17.66;65.58
75039;BME280;63609;49.992;14.512;2023-07-30T06:33:10;97632.75;;;17.43;67.20
75039;BME280;63609;49.992;14.512;2023-07-30T06:35:37;97632.56;;;17.51;65.99
75039;BME280;63609;49.992;14.512;2023-07-30T06:38:07;97627.97;;;17.39;66.76
75039;BME280;63609;49.992;14.512;2023-07-30T06:40:36;97629.47;;;17.54;66.77
75039;BME280;63609;49.992;14.512;2023-07-30T06:43:04;97623.78;;;17.16;67.00
75039;BME280;63609;49.992;14.512;2023-07-30T06:45:32;97629.69;;;17.60;66.65
75039;BME280;63609;49.992;14.512;2023-07-30T06:47:58;97632.09;;;17.21;67.00
75039;BME280;63609;49.992;14.512;2023-07-30T06:50:25;97635.38;;;16.97;68.30
75039;BME280;63609;49.992;14.512;2023-07-30T06:52:52;97625.28;;;17.39;67.24
75039;BME280;63609;49.992;14.512;2023-07-30T06:55:20;97635.38;;;16.97;68.09
75039;BME280;63609;49.992;14.512;2023-07-30T06:57:47;97628.59;;;17.47;67.09
75039;BME280;63609;49.992;14.512;2023-07-30T07:00:15;97641.41;;;17.06;68.63
75039;BME280;63609;49.992;14.512;2023-07-30T07:02:48;97641.81;;;17.03;67.85
75039;BME280;63609;49.992;14.512;2023-07-30T07:05:16;97645.22;;;17.51;67.08
75039;BME280;63609;49.992;14.512;2023-07-30T07:07:44;97644.28;;;16.98;68.28
75039;BME280;63609;49.992;14.512;2023-07-30T07:10:12;97653.56;;;16.88;68.89
75039;BME280;63609;49.992;14.512;2023-07-30T07:12:39;97657.63;;;17.25;67.97
75039;BME280;63609;49.992;14.512;2023-07-30T07:15:06;97652.06;;;17.34;67.47
75039;BME280;63609;49.992;14.512;2023-07-30T07:17:37;97666.06;;;17.03;68.95
75039;BME280;63609;49.992;14.512;2023-07-30T07:20:06;97667.56;;;17.18;68.11
75039;BME280;63609;49.992;14.512;2023-07-30T07:22:36;97669.69;;;17.30;67.54
75039;BME280;63609;49.992;14.512;2023-07-30T07:25:04;97671.81;;;17.54;67.66
75039;BME280;63609;49.992;14.512;2023-07-30T07:27:31;97687.69;;;17.16;69.17
75039;BME280;63609;49.992;14.512;2023-07-30T07:30:02;97685.19;;;17.14;69.69
75039;BME280;63609;49.992;14.512;2023-07-30T07:32:30;97685.31;;;16.93;69.25
75039;BME280;63609;49.992;14.512;2023-07-30T07:35:00;97691.31;;;16.88;70.16
75039;BME280;63609;49.992;14.512;2023-07-30T07:37:31;97689.25;;;16.90;70.52
75039;BME280;63609;49.992;14.512;2023-07-30T07:39:59;97688.28;;;17.11;70.64
75039;BME280;63609;49.992;14.512;2023-07-30T07:42:26;97698.97;;;16.85;71.76
75039;BME280;63609;49.992;14.512;2023-07-30T07:44:53;97691.41;;;16.33;72.97
75039;BME280;63609;49.992;14.512;2023-07-30T07:47:20;97712.53;;;15.86;75.35
75039;BME280;63609;49.992;14.512;2023-07-30T07:49:48;97702.69;;;15.93;74.57
75039;BME280;63609;49.992;14.512;2023-07-30T07:52:20;97727.00;;;15.64;77.15
75039;BME280;63609;49.992;14.512;2023-07-30T07:54:47;97745.41;;;15.24;75.87
75039;BME280;63609;49.992;14.512;2023-07-30T07:57:14;97741.81;;;15.02;76.00
75039;BME280;63609;49.992;14.512;2023-07-30T07:59:44;97736.06;;;14.91;77.11
75039;BME280;63609;49.992;14.512;2023-07-30T08:02:12;97734.59;;;14.59;77.64
75039;BME280;63609;49.992;14.512;2023-07-30T08:04:40;97742.44;;;14.31;78.66
75039;BME280;63609;49.992;14.512;2023-07-30T08:07:08;97738.13;;;14.07;79.89
75039;BME280;63609;49.992;14.512;2023-07-30T08:09:36;97726.25;;;14.54;78.27
75039;BME280;63609;49.992;14.512;2023-07-30T08:12:03;97729.13;;;14.82;77.08
75039;BME280;63609;49.992;14.512;2023-07-30T08:14:30;97716.91;;;14.79;76.89
75039;BME280;63609;49.992;14.512;2023-07-30T08:16:58;97714.31;;;14.71;77.19
75039;BME280;63609;49.992;14.512;2023-07-30T08:19:25;97718.47;;;14.59;77.70
75039;BME280;63609;49.992;14.512;2023-07-30T08:21:53;97717.72;;;14.35;79.19
75039;BME280;63609;49.992;14.512;2023-07-30T08:24:22;97708.19;;;14.48;78.77
75039;BME280;63609;49.992;14.512;2023-07-30T08:26:49;97719.41;;;14.51;78.48
75039;BME280;63609;49.992;14.512;2023-07-30T08:29:16;97720.31;;;14.58;78.07
75039;BME280;63609;49.992;14.512;2023-07-30T08:31:43;97716.06;;;14.78;77.67
75039;BME280;63609;49.992;14.512;2023-07-30T08:34:10;97717.19;;;14.55;78.95
75039;BME280;63609;49.992;14.512;2023-07-30T08:36:37;97723.03;;;14.43;78.71
75039;BME280;63609;49.992;14.512;2023-07-30T08:39:05;97715.28;;;14.99;76.97
75039;BME280;63609;49.992;14.512;2023-07-30T08:41:32;97710.50;;;15.10;76.26
75039;BME280;63609;49.992;14.512;2023-07-30T08:43:59;97707.50;;;15.19;76.62
75039;BME280;63609;49.992;14.512;2023-07-30T08:46:27;97705.94;;;15.46;75.34
75039;BME280;63609;49.992;14.512;2023-07-30T08:48:54;97707.09;;;15.58;75.16
75039;BME280;63609;49.992;14.512;2023-07-30T08:51:25;97692.03;;;15.85;74.48
75039;BME280;63609;49.992;14.512;2023-07-30T08:53:58;97690.88;;;15.94;73.80
75039;BME280;63609;49.992;14.512;2023-07-30T08:56:27;97700.63;;;15.53;75.82
75039;BME280;63609;49.992;14.512;2023-07-30T08:58:56;97689.09;;;15.80;75.19
75039;BME280;63609;49.992;14.512;2023-07-30T09:01:37;97694.66;;;15.57;76.40
75039;BME280;63609;49.992;14.512;2023-07-30T09:04:06;97688.63;;;15.98;75.85
75039;BME280;63609;49.992;14.512;2023-07-30T09:06:37;97700.69;;;16.02;75.71
75039;BME280;63609;49.992;14.512;2023-07-30T09:09:13;97700.94;;;16.35;76.12
75039;BME280;63609;49.992;14.512;2023-07-30T09:11:40;97694.03;;;16.26;75.48
75039;BME280;63609;49.992;14.512;2023-07-30T09:14:07;97691.88;;;16.43;75.67
75039;BME280;63609;49.992;14.512;2023-07-30T09:16:37;97691.41;;;16.33;75.90
75039;BME280;63609;49.992;14.512;2023-07-30T09:19:05;97700.63;;;16.51;75.72
75039;BME280;63609;49.992;14.512;2023-07-30T09:21:34;97697.31;;;16.84;74.86
75039;BME280;63609;49.992;14.512;2023-07-30T09:24:03;97699.63;;;16.59;75.67
75039;BME280;63609;49.992;14.512;2023-07-30T09:26:45;97700.88;;;16.63;75.85
75039;BME280;63609;49.992;14.512;2023-07-30T09:29:14;97694.13;;;17.15;74.66
75039;BME280;63609;49.992;14.512;2023-07-30T09:31:49;97695.66;;;16.55;74.37
75039;BME280;63609;49.992;14.512;2023-07-30T09:34:18;97694.66;;;16.62;74.49
75039;BME280;63609;49.992;14.512;2023-07-30T09:36:46;97692.97;;;16.55;74.60
75039;BME280;63609;49.992;14.512;2023-07-30T09:39:19;97692.13;;;16.82;74.14
75039;BME280;63609;49.992;14.512;2023-07-30T09:41:46;97692.31;;;16.81;73.67
75039;BME280;63609;49.992;14.512;2023-07-30T09:44:16;97697.69;;;17.29;73.02
75039;BME280;63609;49.992;14.512;2023-07-30T09:46:45;97694.28;;;17.88;71.54
75039;BME280;63609;49.992;14.512;2023-07-30T09:49:13;97689.09;;;17.79;70.69
75039;BME280;63609;49.992;14.512;2023-07-30T09:51:42;97691.94;;;17.51;72.08
75039;BME280;63609;49.992;14.512;2023-07-30T09:54:12;97681.34;;;17.50;71.60
75039;BME280;63609;49.992;14.512;2023-07-30T09:56:41;97681.63;;;17.68;70.45
75039;BME280;63609;49.992;14.512;2023-07-30T09:59:09;97688.47;;;17.84;70.44
75039;BME280;63609;49.992;14.512;2023-07-30T10:01:47;97683.28;;;17.69;71.46
75039;BME280;63609;49.992;14.512;2023-07-30T10:04:19;97684.13;;;17.83;70.62
75039;BME280;63609;49.992;14.512;2023-07-30T10:06:58;97691.63;;;18.34;69.79
75039;BME280;63609;49.992;14.512;2023-07-30T10:09:31;97692.19;;;18.56;69.41
75039;BME280;63609;49.992;14.512;2023-07-30T10:12:01;97689.72;;;18.28;67.95
75039;BME280;63609;49.992;14.512;2023-07-30T10:14:30;97685.72;;;18.57;69.12
75039;BME280;63609;49.992;14.512;2023-07-30T10:17:00;97693.63;;;18.58;66.80
75039;BME280;63609;49.992;14.512;2023-07-30T10:19:29;97683.75;;;18.97;64.44
75039;BME280;63609;49.992;14.512;2023-07-30T10:25:03;97683.03;;;19.28;64.10
75039;BME280;63609;49.992;14.512;2023-07-30T10:27:41;97691.91;;;20.05;63.41
75039;BME280;63609;49.992;14.512;2023-07-30T10:30:17;97691.88;;;19.80;62.65
75039;BME280;63609;49.992;14.512;2023-07-30T10:33:00;97689.84;;;19.37;62.18
75039;BME280;63609;49.992;14.512;2023-07-30T10:35:45;97684.66;;;19.98;62.48
75039;BME280;63609;49.992;14.512;2023-07-30T10:38:19;97683.25;;;20.64;60.86
75039;BME280;63609;49.992;14.512;2023-07-30T10:41:06;97680.28;;;21.02;60.58
75039;BME280;63609;49.992;14.512;2023-07-30T10:43:47;97683.16;;;21.07;59.50
75039;BME280;63609;49.992;14.512;2023-07-30T10:46:16;97678.56;;;21.26;58.49
75039;BME280;63609;49.992;14.512;2023-07-30T10:48:46;97668.16;;;21.95;59.66
75039;BME280;63609;49.992;14.512;2023-07-30T10:51:14;97671.84;;;21.89;56.93
75039;BME280;63609;49.992;14.512;2023-07-30T10:53:44;97671.13;;;22.16;56.78
75039;BME280;63609;49.992;14.512;2023-07-30T10:56:17;97669.28;;;22.64;54.27
75039;BME280;63609;49.992;14.512;2023-07-30T10:58:49;97657.91;;;22.43;53.29
75039;BME280;63609;49.992;14.512;2023-07-30T11:01:17;97669.13;;;22.00;53.38
75039;BME280;63609;49.992;14.512;2023-07-30T11:03:49;97666.91;;;21.79;54.54
75039;BME280;63609;49.992;14.512;2023-07-30T11:06:25;97668.53;;;21.87;55.98
75039;BME280;63609;49.992;14.512;2023-07-30T11:08:52;97662.28;;;22.44;52.52
75039;BME280;63609;49.992;14.512;2023-07-30T11:11:19;97661.81;;;22.36;54.18
75039;BME280;63609;49.992;14.512;2023-07-30T11:13:47;97655.28;;;22.02;57.57
75039;BME280;63609;49.992;14.512;2023-07-30T11:16:15;97655.94;;;23.02;53.07
75039;BME280;63609;49.992;14.512;2023-07-30T11:18:43;97644.72;;;22.99;50.74
75039;BME280;63609;49.992;14.512;2023-07-30T11:21:12;97658.13;;;21.95;55.91
75039;BME280;63609;49.992;14.512;2023-07-30T11:23:45;97661.75;;;21.47;55.04
75039;BME280;63609;49.992;14.512;2023-07-30T11:26:15;97652.50;;;21.78;54.82
75039;BME280;63609;49.992;14.512;2023-07-30T11:28:43;97656.69;;;21.51;54.34
75039;BME280;63609;49.992;14.512;2023-07-30T11:31:17;97643.97;;;21.63;55.42
75039;BME280;63609;49.992;14.512;2023-07-30T11:33:47;97650.03;;;21.35;55.05
75039;BME280;63609;49.992;14.512;2023-07-30T11:36:21;97654.72;;;21.58;56.21
75039;BME280;63609;49.992;14.512;2023-07-30T11:38:49;97643.72;;;22.06;53.95
75039;BME280;63609;49.992;14.512;2023-07-30T11:41:19;97647.50;;;22.40;53.20
75039;BME280;63609;49.992;14.512;2023-07-30T11:43:49;97641.34;;;22.10;53.13
75039;BME280;63609;49.992;14.512;2023-07-30T11:46:18;97637.69;;;22.28;52.63
75039;BME280;63609;49.992;14.512;2023-07-30T11:48:52;97637.66;;;22.74;50.50
75039;BME280;63609;49.992;14.512;2023-07-30T11:51:25;97630.00;;;23.12;49.70
75039;BME280;63609;49.992;14.512;2023-07-30T11:54:00;97634.38;;;23.13;50.49
75039;BME280;63609;49.992;14.512;2023-07-30T11:56:31;97631.28;;;23.09;49.45
75039;BME280;63609;49.992;14.512;2023-07-30T11:59:05;97629.28;;;23.04;49.88
75039;BME280;63609;49.992;14.512;2023-07-30T12:01:35;97637.00;;;22.56;51.03
75039;BME280;63609;49.992;14.512;2023-07-30T12:04:05;97633.41;;;22.67;49.93
75039;BME280;63609;49.992;14.512;2023-07-30T12:06:46;97636.53;;;22.59;51.47
75039;BME280;63609;49.992;14.512;2023-07-30T12:09:16;97624.94;;;22.52;50.95
75039;BME280;63609;49.992;14.512;2023-07-30T12:14:12;97611.09;;;21.95;52.34
75039;BME280;63609;49.992;14.512;2023-07-30T12:16:39;97620.84;;;21.72;53.48
75039;BME280;63609;49.992;14.512;2023-07-30T12:19:08;97631.31;;;22.57;52.57
75039;BME280;63609;49.992;14.512;2023-07-30T12:21:37;97623.00;;;22.40;52.58
75039;BME280;63609;49.992;14.512;2023-07-30T12:24:06;97641.94;;;21.89;51.95
75039;BME280;63609;49.992;14.512;2023-07-30T12:26:33;97640.84;;;21.18;52.67
75039;BME280;63609;49.992;14.512;2023-07-30T12:29:01;97633.72;;;21.35;52.90
75039;BME280;63609;49.992;14.512;2023-07-30T12:31:28;97630.63;;;21.20;53.16
75039;BME280;63609;49.992;14.512;2023-07-30T12:33:55;97630.81;;;21.48;51.23
75039;BME280;63609;49.992;14.512;2023-07-30T12:36:23;97642.63;;;20.76;54.90
75039;BME280;63609;49.992;14.512;2023-07-30T12:38:53;97624.25;;;20.16;57.32
75039;BME280;63609;49.992;14.512;2023-07-30T12:41:21;97633.28;;;20.10;58.02
75039;BME280;63609;49.992;14.512;2023-07-30T12:43:53;97631.63;;;19.84;57.87
75039;BME280;63609;49.992;14.512;2023-07-30T12:46:27;97626.91;;;19.42;57.55
75039;BME280;63609;49.992;14.512;2023-07-30T12:48:59;97622.56;;;19.40;57.70
75039;BME280;63609;49.992;14.512;2023-07-30T12:51:32;97642.56;;;19.39;58.87
75039;BME280;63609;49.992;14.512;2023-07-30T12:54:00;97651.03;;;19.12;60.26
75039;BME280;63609;49.992;14.512;2023-07-30T12:56:30;97647.88;;;18.63;62.32
75039;BME280;63609;49.992;14.512;2023-07-30T12:58:59;97647.69;;;18.65;61.16
75039;BME280;63609;49.992;14.512;2023-07-30T13:01:26;97646.44;;;18.61;60.96
75039;BME280;63609;49.992;14.512;2023-07-30T13:03:53;97647.41;;;18.79;61.11
75039;BME280;63609;49.992;14.512;2023-07-30T13:06:21;97651.75;;;18.81;61.10